createdAt,value
2023-04-06T00:00:54.877Z,100682.11
2023-04-06T00:03:29.938Z,100677.98
2023-04-06T00:05:57.268Z,100682.44
2023-04-06T00:08:36.192Z,100679.30
2023-04-06T00:11:03.313Z,100673.46
2023-04-06T00:13:42.274Z,100670.35
2023-04-06T00:16:10.685Z,100668.62
2023-04-06T00:18:42.787Z,100672.58
2023-04-06T00:21:10.167Z,100669.83
2023-04-06T00:23:37.834Z,100667.61
2023-04-06T00:26:05.395Z,100663.66
2023-04-06T00:28:43.421Z,100664.34
2023-04-06T00:31:25.032Z,100663.98
2023-04-06T00:33:57.053Z,100660.90
2023-04-06T00:36:28.241Z,100661.77
2023-04-06T00:38:58.316Z,100659.52
2023-04-06T00:41:29.259Z,100657.13
2023-04-06T00:44:03.845Z,100654.72
2023-04-06T00:46:32.598Z,100650.77
2023-04-06T00:49:00.254Z,100654.02
2023-04-06T00:51:27.898Z,100652.83
2023-04-06T00:53:57.808Z,100651.96
2023-04-06T00:56:28.263Z,100648.55
2023-04-06T00:58:58.762Z,100648.89
2023-04-06T01:01:26.984Z,100648.58
2023-04-06T01:03:56.546Z,100648.92
2023-04-06T01:06:25.232Z,100645.83
2023-04-06T01:09:02.318Z,100642.05
2023-04-06T01:11:30.098Z,100644.14
2023-04-06T01:14:00.919Z,100641.23
2023-04-06T01:16:34.830Z,100641.41
2023-04-06T01:19:25.841Z,100640.54
2023-04-06T01:21:54.940Z,100638.15
2023-04-06T01:24:31.980Z,100636.09
2023-04-06T01:27:02.873Z,100631.97
2023-04-06T01:29:50.245Z,100631.30
2023-04-06T01:32:26.330Z,100629.27
2023-04-06T01:34:57.278Z,100627.22
2023-04-06T01:37:24.738Z,100624.66
2023-04-06T01:39:54.547Z,100622.93
2023-04-06T01:42:29.828Z,100624.14
2023-04-06T01:44:57.863Z,100621.02
2023-04-06T01:47:36.282Z,100625.17
2023-04-06T01:50:07.366Z,100619.34
2023-04-06T01:52:38.161Z,100615.55
2023-04-06T01:55:10.111Z,100610.92
2023-04-06T01:57:57.641Z,100611.79
2023-04-06T02:00:45.500Z,100614.70
2023-04-06T02:03:16.785Z,100611.10
2023-04-06T02:05:47.559Z,100612.32
2023-04-06T02:08:36.015Z,100606.84
2023-04-06T02:11:06.264Z,100611.65
2023-04-06T02:14:02.875Z,100607.20
2023-04-06T02:16:32.872Z,100602.39
2023-04-06T02:19:00.145Z,100601.17
2023-04-06T02:21:27.398Z,100602.20
2023-04-06T02:23:55.221Z,100599.63
2023-04-06T02:26:22.722Z,100598.76
2023-04-06T02:28:58.987Z,100600.11
2023-04-06T02:31:46.513Z,100594.23
2023-04-06T02:34:24.211Z,100592.50
2023-04-06T02:36:56.127Z,100593.52
2023-04-06T02:39:31.216Z,100591.78
2023-04-06T02:41:59.327Z,100586.79
2023-04-06T02:44:30.949Z,100589.17
2023-04-06T02:47:09.554Z,100586.93
2023-04-06T02:49:37.958Z,100586.02
2023-04-06T02:52:05.596Z,100588.41
2023-04-06T02:54:53.638Z,100583.59
2023-04-06T02:57:41.076Z,100582.36
2023-04-06T03:00:13.940Z,100582.52
2023-04-06T03:02:53.114Z,100586.09
2023-04-06T03:05:20.957Z,100589.80
2023-04-06T03:07:48.404Z,100590.96
2023-04-06T03:10:36.442Z,100585.27
2023-04-06T03:13:03.802Z,100588.84
2023-04-06T03:15:57.565Z,100587.45
2023-04-06T03:18:36.406Z,100588.30
2023-04-06T03:21:24.034Z,100586.36
2023-04-06T03:23:52.735Z,100589.23
2023-04-06T03:26:23.960Z,100590.77
2023-04-06T03:28:58.885Z,100597.06
2023-04-06T03:31:38.349Z,100596.02
2023-04-06T03:34:13.669Z,100597.71
2023-04-06T03:36:44.204Z,100598.66
2023-04-06T03:39:11.550Z,100598.48
2023-04-06T03:41:40.241Z,100596.24
2023-04-06T03:44:43.328Z,100595.35
2023-04-06T03:47:14.479Z,100593.60
2023-04-06T03:49:44.717Z,100589.46
2023-04-06T03:52:12.925Z,100594.20
2023-04-06T03:54:40.224Z,100590.06
2023-04-06T03:57:07.825Z,100593.81
2023-04-06T03:59:40.710Z,100591.73
2023-04-06T04:02:17.585Z,100589.83
2023-04-06T04:04:45.892Z,100594.95
2023-04-06T04:07:13.178Z,100592.39
2023-04-06T04:10:00.909Z,100594.27
2023-04-06T04:12:32.195Z,100593.55
2023-04-06T04:15:19.997Z,100596.44
2023-04-06T04:17:50.562Z,100596.61
2023-04-06T04:20:21.362Z,100593.88
2023-04-06T04:22:51.991Z,100596.45
2023-04-06T04:25:19.867Z,100595.61
2023-04-06T04:27:49.775Z,100587.58
2023-04-06T04:30:25.536Z,100588.98
2023-04-06T04:33:13.163Z,100587.59
2023-04-06T04:36:00.498Z,100587.98
2023-04-06T04:38:32.963Z,100583.38
2023-04-06T04:41:20.799Z,100583.09
2023-04-06T04:43:48.722Z,100583.11
2023-04-06T04:46:20.756Z,100583.66
2023-04-06T04:48:48.300Z,100583.02
2023-04-06T04:51:35.720Z,100574.66
2023-04-06T04:54:25.706Z,100572.98
2023-04-06T04:56:53.544Z,100571.46
2023-04-06T04:59:41.075Z,100566.02
2023-04-06T05:02:15.474Z,100570.98
2023-04-06T05:04:57.660Z,100567.25
2023-04-06T05:07:29.385Z,100566.23
2023-04-06T05:09:59.494Z,100563.70
2023-04-06T05:12:28.804Z,100566.48
2023-04-06T05:15:07.286Z,100569.27
2023-04-06T05:17:34.632Z,100569.47
2023-04-06T05:20:02.044Z,100572.58
2023-04-06T05:22:30.352Z,100573.60
2023-04-06T05:25:09.515Z,100575.52
2023-04-06T05:27:40.386Z,100578.11
2023-04-06T05:30:14.491Z,100572.14
2023-04-06T05:32:45.624Z,100573.60
2023-04-06T05:35:13.825Z,100572.62
2023-04-06T05:37:41.861Z,100571.67
2023-04-06T05:40:11.901Z,100574.67
2023-04-06T05:42:42.205Z,100567.07
2023-04-06T05:45:17.868Z,100566.84
2023-04-06T05:47:47.120Z,100560.92
2023-04-06T05:50:21.809Z,100560.35
2023-04-06T05:52:49.050Z,100552.76
2023-04-06T05:55:18.419Z,100552.33
2023-04-06T05:57:48.705Z,100552.23
2023-04-06T06:00:18.728Z,100555.01
2023-04-06T06:02:51.554Z,100551.59
2023-04-06T06:05:21.240Z,100544.70
2023-04-06T06:07:55.025Z,100545.00
2023-04-06T06:10:22.235Z,100540.77
2023-04-06T06:12:50.724Z,100540.23
2023-04-06T06:15:19.202Z,100539.98
2023-04-06T06:17:47.830Z,100537.66
2023-04-06T06:20:16.573Z,100533.02
2023-04-06T06:22:44.247Z,100532.03
2023-04-06T06:25:17.034Z,100528.90
2023-04-06T06:27:46.523Z,100532.02
2023-04-06T06:30:16.584Z,100533.95
2023-04-06T06:32:44.219Z,100533.80
2023-04-06T06:35:12.707Z,100534.27
2023-04-06T06:37:42.909Z,100532.54
2023-04-06T06:40:17.203Z,100530.70
2023-04-06T06:42:45.220Z,100533.14
2023-04-06T06:45:33.635Z,100526.08
2023-04-06T06:48:01.078Z,100520.71
2023-04-06T06:50:30.819Z,100520.14
2023-04-06T06:52:58.437Z,100522.55
2023-04-06T06:55:26.627Z,100523.00
2023-04-06T06:57:53.802Z,100514.64
2023-04-06T07:00:23.078Z,100515.13
2023-04-06T07:02:51.380Z,100511.73
2023-04-06T07:05:27.391Z,100514.81
2023-04-06T07:08:00.135Z,100512.15
2023-04-06T07:10:28.194Z,100518.64
2023-04-06T07:12:55.564Z,100517.20
2023-04-06T07:15:27.516Z,100516.54
2023-04-06T07:17:55.891Z,100518.77
2023-04-06T07:20:25.977Z,100515.80
2023-04-06T07:22:53.980Z,100519.33
2023-04-06T07:25:30.076Z,100514.60
2023-04-06T07:28:00.866Z,100512.77
2023-04-06T07:30:30.704Z,100505.73
2023-04-06T07:33:02.883Z,100500.92
2023-04-06T07:35:31.877Z,100502.05
2023-04-06T07:37:59.717Z,100510.39
2023-04-06T07:40:28.461Z,100508.17
2023-04-06T07:42:57.572Z,100500.02
2023-04-06T07:45:26.206Z,100515.55
2023-04-06T07:47:54.425Z,100514.98
2023-04-06T07:50:22.436Z,100510.66
2023-04-06T07:52:49.892Z,100512.09
2023-04-06T07:55:20.933Z,100502.63
2023-04-06T07:57:50.343Z,100497.70
2023-04-06T08:00:19.250Z,100497.31
2023-04-06T08:02:51.350Z,100500.88
2023-04-06T08:05:19.056Z,100501.52
2023-04-06T08:07:48.770Z,100503.30
2023-04-06T08:10:27.318Z,100505.54
2023-04-06T08:12:54.846Z,100501.92
2023-04-06T08:15:22.540Z,100497.62
2023-04-06T08:17:50.057Z,100503.24
2023-04-06T08:20:24.991Z,100498.77
2023-04-06T08:22:55.019Z,100491.17
2023-04-06T08:25:22.207Z,100493.90
2023-04-06T08:27:52.399Z,100490.41
2023-04-06T08:30:30.287Z,100494.15
2023-04-06T08:32:57.521Z,100494.84
2023-04-06T08:35:24.924Z,100501.39
2023-04-06T08:37:52.404Z,100496.23
2023-04-06T08:40:41.517Z,100494.80
2023-04-06T08:43:12.641Z,100492.61
2023-04-06T08:45:45.441Z,100491.98
2023-04-06T08:48:14.176Z,100480.88
2023-04-06T08:50:45.679Z,100485.77
2023-04-06T08:53:33.518Z,100487.52
2023-04-06T08:56:11.832Z,100487.85
2023-04-06T08:58:54.582Z,100485.74
2023-04-06T09:01:38.641Z,100486.04
2023-04-06T09:04:13.041Z,100485.64
2023-04-06T09:06:41.968Z,100487.96
2023-04-06T09:09:09.781Z,100487.52
2023-04-06T09:11:48.808Z,100485.49
2023-04-06T09:14:16.565Z,100482.73
2023-04-06T09:16:46.306Z,100478.12
2023-04-06T09:19:17.049Z,100473.52
2023-04-06T09:21:44.683Z,100465.93
2023-04-06T09:24:43.986Z,100464.60
2023-04-06T09:27:13.792Z,100465.50
2023-04-06T09:29:46.698Z,100463.80
2023-04-06T09:32:21.860Z,100458.13
2023-04-06T09:35:13.434Z,100453.32
2023-04-06T09:37:44.551Z,100453.87
2023-04-06T09:40:14.636Z,100455.44
2023-04-06T09:42:42.817Z,100449.43
2023-04-06T09:45:11.968Z,100449.77
2023-04-06T09:47:41.639Z,100455.28
2023-04-06T09:50:12.763Z,100453.57
2023-04-06T09:52:43.686Z,100443.09
2023-04-06T09:55:17.295Z,100431.23
2023-04-06T09:57:53.479Z,100434.14
2023-04-06T10:00:34.686Z,100435.70
2023-04-06T10:03:16.921Z,100436.05
2023-04-06T10:05:53.783Z,100432.09
2023-04-06T10:08:26.619Z,100430.70
2023-04-06T10:10:54.606Z,100434.66
2023-04-06T10:13:23.016Z,100430.70
2023-04-06T10:15:55.356Z,100427.95
2023-04-06T10:18:26.843Z,100422.13
2023-04-06T10:21:19.757Z,100418.34
2023-04-06T10:23:51.389Z,100412.48
2023-04-06T10:26:22.045Z,100404.91
2023-04-06T10:28:50.873Z,100407.66
2023-04-06T10:31:30.825Z,100408.88
2023-04-06T10:34:02.803Z,100410.09
2023-04-06T10:36:43.164Z,100415.58
2023-04-06T10:39:29.242Z,100416.77
2023-04-06T10:41:56.705Z,100410.94
2023-04-06T10:44:26.728Z,100405.95
2023-04-06T10:47:01.607Z,100403.89
2023-04-06T10:49:30.023Z,100402.68
2023-04-06T10:51:58.578Z,100395.98
2023-04-06T10:54:29.143Z,100393.77
2023-04-06T10:56:57.304Z,100392.05
2023-04-06T10:59:48.230Z,100388.95
2023-04-06T11:02:24.405Z,100386.20
2023-04-06T11:05:00.344Z,100385.18
2023-04-06T11:07:31.448Z,100381.58
2023-04-06T11:10:13.888Z,100384.13
2023-04-06T11:12:45.672Z,100388.08
2023-04-06T11:15:14.168Z,100382.76
2023-04-06T11:17:42.077Z,100386.36
2023-04-06T11:20:19.030Z,100386.35
2023-04-06T11:22:56.129Z,100383.95
2023-04-06T11:25:23.928Z,100380.88
2023-04-06T11:27:51.697Z,100372.61
2023-04-06T11:30:19.597Z,100364.22
2023-04-06T11:32:50.125Z,100363.52
2023-04-06T11:35:23.886Z,100359.91
2023-04-06T11:37:52.586Z,100359.91
2023-04-06T11:40:25.781Z,100356.48
2023-04-06T11:43:16.707Z,100353.91
2023-04-06T11:45:47.624Z,100356.14
2023-04-06T11:48:25.447Z,100350.30
2023-04-06T11:51:01.924Z,100353.38
2023-04-06T11:53:33.749Z,100353.90
2023-04-06T11:56:01.196Z,100348.42
2023-04-06T11:58:31.998Z,100341.02
2023-04-06T12:03:49.105Z,100335.52
2023-04-06T12:06:17.870Z,100334.84
2023-04-06T12:08:45.840Z,100330.89
2023-04-06T12:11:16.274Z,100324.70
2023-04-06T12:13:46.531Z,100316.96
2023-04-06T12:16:13.882Z,100310.09
2023-04-06T12:18:41.535Z,100308.38
2023-04-06T12:21:18.900Z,100305.79
2023-04-06T12:23:46.660Z,100308.18
2023-04-06T12:26:14.116Z,100295.30
2023-04-06T12:28:41.714Z,100298.56
2023-04-06T12:31:09.379Z,100294.61
2023-04-06T12:33:36.591Z,100288.27
2023-04-06T12:36:03.960Z,100289.48
2023-04-06T12:38:31.914Z,100293.42
2023-04-06T12:40:59.280Z,100292.73
2023-04-06T12:43:37.071Z,100295.31
2023-04-06T12:46:04.428Z,100297.37
2023-04-06T12:48:31.673Z,100292.55
2023-04-06T12:51:04.670Z,100297.20
2023-04-06T12:53:32.282Z,100290.31
2023-04-06T12:55:59.961Z,100291.52
2023-04-06T12:58:29.605Z,100292.03
2023-04-06T13:00:57.551Z,100288.08
2023-04-06T13:03:25.056Z,100287.92
2023-04-06T13:05:53.655Z,100283.96
2023-04-06T13:08:22.194Z,100283.10
2023-04-06T13:10:50.884Z,100276.91
2023-04-06T13:13:28.838Z,100279.51
2023-04-06T13:16:16.859Z,100279.33
2023-04-06T13:18:47.405Z,100281.57
2023-04-06T13:21:18.314Z,100267.48
2023-04-06T13:23:48.245Z,100273.00
2023-04-06T13:26:16.499Z,100274.72
2023-04-06T13:28:44.496Z,100271.61
2023-04-06T13:31:32.854Z,100268.52
2023-04-06T13:34:02.511Z,100264.55
2023-04-06T13:36:31.018Z,100260.09
2023-04-06T13:38:58.365Z,100246.51
2023-04-06T13:41:27.560Z,100249.95
2023-04-06T13:44:15.491Z,100246.52
2023-04-06T13:46:45.815Z,100246.88
2023-04-06T13:49:12.880Z,100251.54
2023-04-06T13:51:40.593Z,100256.51
2023-04-06T13:54:08.620Z,100246.71
2023-04-06T13:56:35.793Z,100239.48
2023-04-06T13:59:03.254Z,100233.49
2023-04-06T14:01:30.996Z,100232.30
2023-04-06T14:04:18.800Z,100231.29
2023-04-06T14:06:48.663Z,100235.76
2023-04-06T14:09:15.967Z,100231.45
2023-04-06T14:11:43.222Z,100229.40
2023-04-06T14:14:10.880Z,100227.51
2023-04-06T14:16:38.386Z,100227.33
2023-04-06T14:19:06.107Z,100230.08
2023-04-06T14:21:42.913Z,100232.80
2023-04-06T14:24:11.163Z,100226.79
2023-04-06T14:26:49.509Z,100224.03
2023-04-06T14:29:16.930Z,100216.66
2023-04-06T14:31:44.100Z,100212.19
2023-04-06T14:34:13.579Z,100210.98
2023-04-06T14:36:44.124Z,100213.04
2023-04-06T14:39:11.774Z,100210.82
2023-04-06T14:41:51.196Z,100214.78
2023-04-06T14:44:39.990Z,100222.34
2023-04-06T14:47:10.016Z,100219.41
2023-04-06T14:49:40.231Z,100223.34
2023-04-06T14:52:08.139Z,100221.30
2023-04-06T14:54:35.649Z,100220.27
2023-04-06T14:57:23.014Z,100215.79
2023-04-06T14:59:51.080Z,100206.85
2023-04-06T15:02:22.840Z,100206.50
2023-04-06T15:04:54.004Z,100205.13
2023-04-06T15:07:32.349Z,100198.43
2023-04-06T15:10:00.004Z,100196.04
2023-04-06T15:12:27.365Z,100197.92
2023-04-06T15:14:57.126Z,100202.74
2023-04-06T15:17:26.552Z,100208.08
2023-04-06T15:19:54.342Z,100205.50
2023-04-06T15:22:41.987Z,100208.09
2023-04-06T15:25:10.743Z,100204.83
2023-04-06T15:27:38.014Z,100205.69
2023-04-06T15:30:26.372Z,100206.55
2023-04-06T15:32:58.018Z,100205.17
2023-04-06T15:35:27.645Z,100203.98
2023-04-06T15:37:55.492Z,100209.83
2023-04-06T15:40:26.354Z,100209.66
2023-04-06T15:42:54.232Z,100202.94
2023-04-06T15:45:31.482Z,100200.54
2023-04-06T15:48:08.386Z,100195.41
2023-04-06T15:50:39.051Z,100190.95
2023-04-06T15:53:07.428Z,100194.03
2023-04-06T15:55:35.342Z,100188.21
2023-04-06T15:58:04.947Z,100189.40
2023-04-06T16:00:38.243Z,100181.68
2023-04-06T16:03:26.257Z,100180.66
2023-04-06T16:06:08.082Z,100182.73
2023-04-06T16:08:36.923Z,100193.36
2023-04-06T16:11:07.406Z,100195.27
2023-04-06T16:13:52.795Z,100190.79
2023-04-06T16:16:36.994Z,100187.54
2023-04-06T16:19:08.931Z,100188.74
2023-04-06T16:21:57.779Z,100185.83
2023-04-06T16:24:30.120Z,100189.08
2023-04-06T16:26:59.111Z,100190.95
2023-04-06T16:29:27.288Z,100187.17
2023-04-06T16:32:04.761Z,100189.58
2023-04-06T16:34:44.631Z,100187.02
2023-04-06T16:37:12.062Z,100187.53
2023-04-06T16:39:41.489Z,100181.19
2023-04-06T16:42:21.011Z,100176.73
2023-04-06T16:44:48.655Z,100177.08
2023-04-06T16:47:25.181Z,100176.21
2023-04-06T16:49:53.080Z,100174.66
2023-04-06T16:52:20.793Z,100172.59
2023-04-06T16:55:10.352Z,100174.65
2023-04-06T16:57:40.417Z,100181.52
2023-04-06T17:00:10.421Z,100179.45
2023-04-06T17:02:51.224Z,100175.33
2023-04-06T17:05:24.869Z,100173.45
2023-04-06T17:07:52.541Z,100173.11
2023-04-06T17:10:28.644Z,100174.66
2023-04-06T17:13:01.354Z,100180.66
2023-04-06T17:15:29.792Z,100185.81
2023-04-06T17:17:58.009Z,100188.20
2023-04-06T17:20:25.549Z,100192.49
2023-04-06T17:22:52.978Z,100194.20
2023-04-06T17:25:20.446Z,100191.98
2023-04-06T17:27:48.012Z,100193.87
2023-04-06T17:30:18.494Z,100191.81
2023-04-06T17:32:46.462Z,100190.61
2023-04-06T17:35:15.064Z,100181.33
2023-04-06T17:37:44.573Z,100182.70
2023-04-06T17:40:13.232Z,100186.48
2023-04-06T17:42:40.759Z,100185.64
2023-04-06T17:45:09.314Z,100183.23
2023-04-06T17:47:36.705Z,100179.11
2023-04-06T17:50:04.949Z,100185.27
2023-04-06T17:52:32.308Z,100189.40
2023-04-06T17:54:59.976Z,100193.70
2023-04-06T17:57:27.304Z,100195.23
2023-04-06T17:59:57.716Z,100194.55
2023-04-06T18:02:25.347Z,100193.88
2023-04-06T18:04:55.506Z,100197.48
2023-04-06T18:07:22.748Z,100193.19
2023-04-06T18:09:50.612Z,100197.83
2023-04-06T18:12:30.670Z,100195.59
2023-04-06T18:14:57.837Z,100197.65
2023-04-06T18:17:27.644Z,100197.13
2023-04-06T18:19:55.089Z,100193.70
2023-04-06T18:22:22.697Z,100195.06
2023-04-06T18:24:52.901Z,100189.92
2023-04-06T18:27:23.096Z,100189.73
2023-04-06T18:29:50.550Z,100188.39
2023-04-06T18:32:18.400Z,100184.27
2023-04-06T18:34:46.282Z,100186.65
2023-04-06T18:37:13.693Z,100184.41
2023-04-06T18:39:41.196Z,100179.61
2023-04-06T18:42:20.392Z,100182.02
2023-04-06T18:44:49.332Z,100176.68
2023-04-06T18:47:26.144Z,100174.98
2023-04-06T18:49:53.678Z,100168.45
2023-04-06T18:52:21.044Z,100168.80
2023-04-06T18:54:48.471Z,100168.97
2023-04-06T18:57:19.276Z,100168.98
2023-04-06T18:59:55.166Z,100168.45
2023-04-06T19:02:25.672Z,100168.27
2023-04-06T19:04:59.337Z,100176.35
2023-04-06T19:07:29.468Z,100179.29
2023-04-06T19:10:17.429Z,100178.26
2023-04-06T19:12:54.675Z,100175.85
2023-04-06T19:15:22.415Z,100176.52
2023-04-06T19:17:49.681Z,100167.77
2023-04-06T19:20:20.247Z,100161.41
2023-04-06T19:22:50.308Z,100154.88
2023-04-06T19:25:18.141Z,100151.96
2023-04-06T19:27:49.668Z,100147.14
2023-04-06T19:30:17.502Z,100142.34
2023-04-06T19:32:56.633Z,100142.85
2023-04-06T19:35:33.096Z,100140.44
2023-04-06T19:38:00.721Z,100143.89
2023-04-06T19:40:28.008Z,100140.10
2023-04-06T19:42:55.575Z,100143.55
2023-04-06T19:45:23.244Z,100141.66
2023-04-06T19:47:54.015Z,100141.48
2023-04-06T19:50:21.830Z,100140.62
2023-04-06T19:52:53.399Z,100138.39
2023-04-06T19:55:21.011Z,100144.56
2023-04-06T19:57:48.616Z,100142.14
2023-04-06T20:00:27.119Z,100136.13
2023-04-06T20:02:54.917Z,100128.60
2023-04-06T20:05:22.543Z,100135.46
2023-04-06T20:07:50.358Z,100140.94
2023-04-06T20:10:20.861Z,100138.71
2023-04-06T20:12:48.890Z,100134.26
2023-04-06T20:15:25.450Z,100129.11
2023-04-06T20:17:52.618Z,100127.57
2023-04-06T20:20:20.198Z,100127.92
2023-04-06T20:23:07.837Z,100126.21
2023-04-06T20:25:35.390Z,100125.70
2023-04-06T20:28:05.416Z,100128.63
2023-04-06T20:30:43.940Z,100129.98
2023-04-06T20:33:20.198Z,100124.66
2023-04-06T20:35:56.716Z,100123.11
2023-04-06T20:38:32.292Z,100120.71
2023-04-06T20:41:03.886Z,100118.13
2023-04-06T20:43:35.692Z,100117.27
2023-04-06T20:46:03.611Z,100116.90
2023-04-06T20:48:41.298Z,100111.77
2023-04-06T20:51:18.756Z,100116.74
2023-04-06T20:53:46.106Z,100115.54
2023-04-06T20:56:16.586Z,100108.84
2023-04-06T20:58:52.828Z,100107.13
2023-04-06T21:01:23.863Z,100111.06
2023-04-06T21:04:11.458Z,100109.34
2023-04-06T21:06:42.688Z,100106.25
2023-04-06T21:09:20.454Z,100112.25
2023-04-06T21:11:47.822Z,100112.26
2023-04-06T21:14:15.148Z,100114.48
2023-04-06T21:16:42.328Z,100117.73
2023-04-06T21:19:09.758Z,100119.11
2023-04-06T21:21:37.110Z,100116.35
2023-04-06T21:24:07.985Z,100116.52
2023-04-06T21:26:36.768Z,100117.37
2023-04-06T21:29:17.824Z,100110.85
2023-04-06T21:31:45.396Z,100108.26
2023-04-06T21:34:13.249Z,100104.64
2023-04-06T21:36:41.036Z,100100.19
2023-04-06T21:39:08.964Z,100101.74
2023-04-06T21:41:36.990Z,100097.09
2023-04-06T21:44:11.725Z,100100.69
2023-04-06T21:46:40.622Z,100094.84
2023-04-06T21:49:28.601Z,100090.35
2023-04-06T21:52:07.430Z,100089.13
2023-04-06T21:54:40.434Z,100085.34
2023-04-06T21:57:27.834Z,100079.49
2023-04-06T21:59:55.412Z,100077.77
2023-04-06T22:02:23.310Z,100083.45
2023-04-06T22:04:55.040Z,100069.20
2023-04-06T22:07:42.751Z,100073.66
2023-04-06T22:10:13.394Z,100072.11
2023-04-06T22:12:52.322Z,100070.02
2023-04-06T22:15:19.668Z,100066.26
2023-04-06T22:17:46.920Z,100057.99
2023-04-06T22:20:17.523Z,100054.21
2023-04-06T22:22:44.798Z,100058.84
2023-04-06T22:25:25.014Z,100058.65
2023-04-06T22:27:54.666Z,100045.23
2023-04-06T22:30:22.026Z,100050.56
2023-04-06T22:32:52.895Z,100059.83
2023-04-06T22:35:20.629Z,100061.73
2023-04-06T22:37:47.940Z,100049.02
2023-04-06T22:40:17.122Z,100056.93
2023-04-06T22:42:44.447Z,100061.56
2023-04-06T22:45:13.168Z,100055.71
2023-04-06T22:47:49.820Z,100044.02
2023-04-06T22:50:18.057Z,100030.59
2023-04-06T22:52:45.686Z,100037.98
2023-04-06T22:55:13.409Z,100040.21
2023-04-06T22:57:50.780Z,100034.89
2023-04-06T23:00:20.265Z,100027.48
2023-04-06T23:02:47.711Z,100030.56
2023-04-06T23:05:15.342Z,100027.80
2023-04-06T23:07:47.377Z,100026.06
2023-04-06T23:10:15.049Z,100020.39
2023-04-06T23:12:42.184Z,100024.00
2023-04-06T23:15:11.375Z,100020.23
2023-04-06T23:17:38.686Z,100020.23
2023-04-06T23:20:10.148Z,100016.42
2023-04-06T23:22:37.340Z,100016.73
2023-04-06T23:25:04.692Z,100017.58
2023-04-06T23:27:32.164Z,100014.13
2023-04-06T23:29:59.926Z,100011.90
2023-04-06T23:32:27.492Z,100012.23
2023-04-06T23:35:02.547Z,100006.72
2023-04-06T23:37:30.072Z,100007.75
2023-04-06T23:39:57.195Z,100007.58
2023-04-06T23:42:28.694Z,100004.11
2023-04-06T23:44:56.337Z,100005.81
2023-04-06T23:47:42.566Z,100001.66
2023-04-06T23:50:11.894Z,99998.55
2023-04-06T23:52:50.968Z,99992.69
2023-04-06T23:55:18.697Z,99990.59
2023-04-06T23:57:48.232Z,99983.38
